Tiempo atmosférico en la estación meteorológica de Vitigudino, Salamanca (769 m.)



Fecha
DESCASC
Temp. máxima en grados centígrados (hora)
DESCASC
Temp. mínima en grados centígrados (hora)
DESCASC
Temp. media en grados centígrados
DESCASC
Racha de viento máxima en m/sg (hora)
DESCASC
Velocidad máxima media en intervalos de 10 minutos(hora)
DESCASC
Precipitaciones diarias en mm
DESCASC
Precipitaciones de 00:00 a 06:00 en mm
DESCASC
Precipitaciones de 06:00 a 12:00 en mm
DESCASC
Precipitaciones de 12:00 a 18:00 en mm
DESCASC
Precipitaciones de 18:00 a 24:00 en mm
DESCASC
16-06-2019 28.6 (18:50) 6.8 (07:10) 17.7 8.89 (17:20) 5 (16:50) 0 0 0 0 0
15-06-2019 24.1 (18:10) 4.4 (06:10) 14.3 7.22 (15:10) 3.89 (13:30) 0 0 0 0 0
14-06-2019 22 (16:50) 4.8 (06:50) 13.4 13.06 (18:20) 8.89 (20:20) 0 0 0 0 0
13-06-2019 24.5 (18:10) 4.1 (00:00) 14.3 10.28 (15:30) 6.39 (16:20) 0 0 0 0 0
12-06-2019 23.4 (17:20) 3.6 (00:00) 13.5 11.94 (18:10) 4.72 (18:10) 0 0 0 0 0
11-06-2019 21.3 (17:30) 8.6 (00:00) 14.9 10 (12:20) 6.11 (01:30) 0 0 0 0 0
10-06-2019 24.3 (17:50) 6.3 (00:00) 15.3 10.28 (21:00) 7.5 (21:30) 0 0 0 0 0
09-06-2019 24.4 (16:10) 5.6 (00:00) 15 11.39 (18:20) 6.67 (19:40) 0 0 0 0 0
08-06-2019 25.8 (17:20) 4.3 (00:00) 15 13.06 (16:50) 5.56 (19:20) 0 0 0 0 0
07-06-2019 20.7 (17:50) 6 (00:00) 13.4 9.17 (00:10) 6.67 (00:10) 0 0 0 0 0
06-06-2019 19.4 (15:30) 3.2 (00:00) 11.3 20.56 (18:40) 12.78 (19:20) 6 0 0 0 6
05-06-2019 19.8 (15:20) 6.8 (00:00) 13.3 12.22 (18:00) 7.22 (15:40) 0 0 0 0 0
04-06-2019 23 (13:30) 9.2 (00:00) 16.1 13.61 (15:40) 9.17 (15:10) 0 0 0 0 0
03-06-2019 30.6 (17:10) 11.4 (00:00) 21 11.67 (19:10) 7.78 (18:40) 0 0 0 0 0
02-06-2019 32.9 (17:50) 12.4 (00:00) 22.7 11.11 (17:50) 6.67 (17:50) 0 0 0 0 0
01-06-2019 34.5 (17:40) 12.2 (00:00) 23.3 8.89 (19:40) 5 (17:40) 0 0 0 0 0
31-05-2019 32.8 (18:30) 12.1 (00:00) 22.4 6.39 (14:20) 4.17 (01:30) 0 0 0 0 0
30-05-2019 29.9 (17:50) 9.1 (00:00) 19.5 11.11 (14:20) 5.83 (10:30) 0 0 0 0 0
29-05-2019 25.7 (16:40) 8 (00:00) 16.9 13.61 (09:50) 9.44 (09:50) 0 0 0 0 0
28-05-2019 24.6 (19:00) 7.8 (00:00) 16.2 9.72 (23:00) 6.39 (10:30) 0 0 0 0 0
27-05-2019 27.7 (17:40) 10.2 (00:00) 19 7.78 (20:00) 5.28 (19:50) 0 0 0 0 0
26-05-2019 27.4 (18:30) 7.7 (00:00) 17.5 8.33 (15:20) 5.28 (09:50) 0 0 0 0 0
25-05-2019 23 (18:50) 6.6 (00:00) 14.8 11.39 (09:20) 7.5 (10:10) 0 0 0 0 0
24-05-2019 22.7 (17:00) 7.7 (00:00) 15.2 10.28 (11:30) 7.22 (09:30) 0 0 0 0 0
23-05-2019 26.5 (18:00) 10.6 (00:00) 18.6 10.28 (19:20) 6.67 (19:20) 0 0 0 0 0
22-05-2019 28 (17:50) 7.4 (00:00) 17.7 7.22 (15:40) 4.17 (17:50) 0 0 0 0 0
21-05-2019 24.6 (19:50) 4.7 (07:10) 14.7 8.33 (15:30) 3.33 (17:30) 0 0 0 0 0

Gráficas

Temp. máximas Temp. mínimas Temp. medias Precipitaciones Rachas de viento máximas Velocidades máximas media en intervalos de 10 minutos

Datos horarios

Fecha y hora oficial Temperatura (ºC) Velocidad del viento (km/h) Dirección del viento Racha (km/h) Dirección de racha Precipitación (mm) Presión (hPa) Tendencia (hPa) Humedad (%)
2019-06-19 23:00:00 16.7 7 Oeste 10 Oeste 0 928.2 0.8 68
2019-06-19 22:00:00 17.7 7 Oeste 22 Oeste 0 927.8 0.5 61
2019-06-19 21:00:00 20.2 18 Oeste 32 Oeste 0 927.6 0.2 54
2019-06-19 20:00:00 22.7 23 Oeste 35 Oeste 0 927.4 -0.2 48
2019-06-19 19:00:00 22.7 18 Sudoeste 30 Oeste 0 927.3 -0.7 45
2019-06-19 18:00:00 24.1 17 Sudoeste 35 Oeste 0 927.4 -0.8 41
2019-06-19 17:00:00 24.2 21 Oeste 31 Oeste 0 927.6 -1 47
2019-06-19 16:00:00 22.2 18 Oeste 31 Oeste 0 928 -0.5 57
2019-06-19 15:00:00 20.8 13 Oeste 37 Sudoeste 0 928.2 0.1 66
2019-06-19 14:00:00 18.4 20 Sudoeste 34 Sudoeste 0.2 928.6 0.8 79
2019-06-19 13:00:00 17.5 20 Sudoeste 27 Oeste 0.2 928.5 1 80
2019-06-19 12:00:00 17.6 12 Sudoeste 28 Sudoeste 0 928.1 0.7 72
2019-06-19 11:00:00 17.3 15 Sudoeste 24 Sudoeste 0 927.8 0.7 78
2019-06-19 10:00:00 15.5 14 Sudoeste 23 Sudoeste 0 927.5 0.8 84
2019-06-19 09:00:00 14 9 Sudoeste 23 Sudoeste 0.2 927.4 0.8 91
2019-06-19 08:00:00 13.3 16 Oeste 26 Sudoeste 0.4 927.1 0.4 90
2019-06-19 07:00:00 14.2 13 Sudoeste 30 Sudoeste 0 926.7 0.1 85
2019-06-19 06:00:00 13.7 5 Sur 9 Sudoeste 0 926.6 0 84
2019-06-19 05:00:00 13.9 5 Sudoeste 12 Sudoeste 0 926.7 0 83
2019-06-19 04:00:00 13.7 10 Sudoeste 18 Sudoeste 0 926.6 -0.2 83
2019-06-19 03:00:00 12.9 11 Sudoeste 17 Sudoeste 0 926.6 -0.5 84
2019-06-19 02:00:00 12.7 9 Sudoeste 12 Oeste 0 926.7 0 81
2019-06-19 01:00:00 14.6 4 Sur 13 Sudoeste 0 926.8 0.6 79
2019-06-19 00:00:00 14.7 6 Oeste 15 Oeste 0 927.1 1.2 78
2019-06-18 23:00:00 16.5 14 Oeste 23 Sudoeste 0 926.7 0.9 72
2019-06-18 22:00:00 17.9 15 Oeste 31 Sudoeste 0 926.2 0.8 64
2019-06-18 21:00:00 19.1 21 Oeste 31 Oeste 0 925.9 0.6 61
2019-06-18 20:00:00 20 23 Sudoeste 48 Sudoeste 0 925.8 0.4 54
2019-06-18 19:00:00 20.5 26 Sudoeste 48 Sudoeste 0 925.4 -0.3 48
2019-06-18 18:00:00 22.1 32 Sudoeste 53 Sudoeste 0 925.3 -0.8 43
2019-06-18 17:00:00 21.7 30 Sudoeste 57 Sudoeste 0 925.4 -0.4 43
2019-06-18 16:00:00 20.8 22 Sur 48 Sudoeste 0 925.7 0 45
2019-06-18 15:00:00 20.7 36 Sudoeste 56 Sudoeste 0 926.1 0.7 50
2019-06-18 14:00:00 21.1 32 Sudoeste 57 Sudoeste 0 925.8 0.6 50
2019-06-18 13:00:00 22 31 Sudoeste 51 Sudoeste 0 925.7 0.5 42
2019-06-18 12:00:00 21 26 Sudoeste 48 Sudoeste 0 925.4 0.3 39
2019-06-18 11:00:00 20.6 21 Sur 42 Sur 0 925.2 -0.1 28
2019-06-18 10:00:00 18.8 21 Sur 34 Sur 0 925.2 0.3 24
2019-06-18 09:00:00 16.7 17 Sur 32 Sur 0 925.1 0.5 23
2019-06-18 08:00:00 13.2 7 Sur 15 Sur 0 925.3 0.5 47
2019-06-18 07:00:00 11.4 8 Sur 14 Sur 0 924.9 -0.1 58
2019-06-18 06:00:00 12.1 5 Sur 12 Sur 0 924.6 -0.5 59
2019-06-18 05:00:00 12.8 5 Sur 9 Sur 0 924.8 -0.6 55
2019-06-18 04:00:00 14.1 4 Sur 14 Sur 0 925 -1 46
2019-06-18 03:00:00 16.5 8 Sur 22 Sudeste 0 925.1 -1 36
2019-06-18 02:00:00 16.3 10 Sudeste 19 Sudeste 0 925.4 -0.6 42
2019-06-18 01:00:00 15.4 3 Sur 9 Este 0 926 -0.5 44
2019-06-18 00:00:00 17.2 8 Este 19 Este 0 926.1 -0.7 38
2019-06-17 23:00:00 18.5 11 Este 19 Este 0 926 -0.6 35
2019-06-17 22:00:00 19.3 6 Norte 17 Norte 0 926.5 0 33
2019-06-17 21:00:00 21.1 10 Noroeste 25 Noroeste 0 926.8 -0.1 31
2019-06-17 20:00:00 23.2 10 Oeste 24 Oeste 0 926.6 -0.7 28
2019-06-17 19:00:00 24.6 14 Sudoeste 32 Sudoeste 0 926.5 -0.8 22
2019-06-17 18:00:00 26.2 19 Sudoeste 35 Sudoeste 0 926.9 -0.9 21
2019-06-17 17:00:00 25.8 19 Sudoeste 41 Sudoeste 0 927.3 -0.6 21
2019-06-17 16:00:00 26.5 19 Sudoeste 36 Sudoeste 0 927.3 -0.9 16
2019-06-17 15:00:00 26.9 20 Sudoeste 35 Sudoeste 0 927.8 -0.5 17
2019-06-17 14:00:00 25.7 18 Sur 37 Sudoeste 0 927.9 -0.6 20
2019-06-17 13:00:00 26 22 Sudoeste 39 Sudoeste 0 928.2 -0.8 18
2019-06-17 12:00:00 24.6 16 Sur 33 Sudoeste 0 928.3 -0.4 23
2019-06-17 11:00:00 22.6 18 Sudoeste 35 Sudoeste 0 928.5 -0.3 25
2019-06-17 10:00:00 20.3 12 Sur 22 Sur 0 929 0.1 32
2019-06-17 09:00:00 17.1 10 Sur 16 Sudeste 0 928.7 -0.4 58
2019-06-17 08:00:00 13.1 5 Sudeste 11 Sudeste 0 928.8 -0.3 77
2019-06-17 07:00:00 10.5 7 Sudeste 11 Sudeste 0 928.9 -0.4 82
2019-06-17 06:00:00 10.5 4 Sur 7 Sur 0 929.1 -0.4 83
2019-06-17 05:00:00 10.5 5 Sudoeste 9 Sur 0 929.1 -0.4 80
2019-06-17 04:00:00 11.4 5 Sur 13 Sudoeste 0 929.3 -0.3 82
2019-06-17 03:00:00 12.2 8 Sur 12 Sudoeste 0 929.5 -0.1 79
2019-06-17 02:00:00 13.3 9 Sur 14 Sudoeste 0 929.5 0.2 75
2019-06-17 01:00:00 14.7 9 Sudoeste 18 Oeste 0 929.6 0.8 68
2019-06-17 00:00:00 16.3 15 Oeste 19 Oeste 0 929.6 1.2 60
2019-06-16 23:00:00 18.2 9 Oeste 14 Oeste 0 929.3 1 41
2019-06-16 22:00:00 21.7 9 Noroeste 14 Oeste 0 928.8 0.5 30
2019-06-16 21:00:00 25.3 8 Oeste 16 Oeste 0 928.4 -0.1 20
2019-06-16 20:00:00 26.1 9 Oeste 22 Oeste 0 928.3 -0.5 17
2019-06-16 19:00:00 28.2 15 Oeste 24 Oeste 0 928.3 -0.7 15
2019-06-16 18:00:00 27.2 17 Sudoeste 32 Sudoeste 0 928.5 -0.9 15
2019-06-16 17:00:00 28 11 Sudoeste 31 Sudoeste 0 928.8 -1.1 14
2019-06-16 16:00:00 27.6 10 Sudoeste 27 Sudoeste 0 929 -1.1 19
2019-06-16 15:00:00 26.7 14 Sudoeste 29 Sudoeste 0 929.4 -1.1 18
2019-06-16 14:00:00 26.1 15 Sudoeste 26 Sudoeste 0 929.9 -0.7 19
2019-06-16 13:00:00 25.6 9 Sudoeste 20 Sudoeste 0 930.1 -0.7 22
2019-06-16 12:00:00 22.5 5 Sudeste 19 Nordeste 0 930.5 -0.3 28
2019-06-16 11:00:00 20.5 8 Este 17 Este 0 930.6 0.2 34
2019-06-16 10:00:00 17.6 10 Nordeste 15 Nordeste 0 930.8 0.6 47
2019-06-16 09:00:00 14.5 4 Nordeste 7 Nordeste 0 930.8 0.7 56
2019-06-16 08:00:00 10.5 3 Nordeste 4 Nordeste 0 930.4 0 71
2019-06-16 07:00:00 6.9 0 Calma 3 Este 0 930.2 -0.5 77
2019-06-16 06:00:00 7.4 3 Este 4 Nordeste 0 930.1 -0.7 77
2019-06-16 05:00:00 7.9 3 Este 4 Este 0 930.4 -0.9 73
2019-06-16 04:00:00 8.6 2 Este 5 Este 0 930.7 -0.8 71
2019-06-16 03:00:00 9.6 3 Norte 5 Nordeste 0 930.8 -0.6 67
2019-06-16 02:00:00 11.2 2 Este 13 Noroeste 0 931.3 0.1 62
2019-06-16 01:00:00 12.7 8 Noroeste 14 Norte 0 931.5 0.7 56
2019-06-16 00:00:00 13.6 8 Noroeste 14 Noroeste 0 931.4 0.8 51
2019-06-15 23:00:00 15.4 10 Noroeste 13 Noroeste 0 931.2 0.6 42
2019-06-15 22:00:00 17.7 8 Norte 11 Norte 0 930.8 0.1 34
2019-06-15 21:00:00 20.7 7 Noroeste 18 Oeste 0 930.6 -0.4 25
2019-06-15 20:00:00 23.4 8 Noroeste 19 Noroeste 0 930.6 -0.6 21
2019-06-15 19:00:00 23.7 9 Sudoeste 23 Oeste 0 930.7 -0.8 21
2019-06-15 18:00:00 24 10 Noroeste 26 Oeste 0 931 -0.8 24
2019-06-15 17:00:00 23.2 8 Sudoeste 23 Noroeste 0 931.2 -0.9 26
2019-06-15 16:00:00 22.6 11 Oeste 26 Oeste 0 931.5 -0.8 26
2019-06-15 15:00:00 20.5 7 Sur 19 Oeste 0 931.8 -0.5 31
2019-06-15 14:00:00 20.3 8 Oeste 22 Oeste 0 932.1 0 34
2019-06-15 13:00:00 18.9 9 Oeste 21 Oeste 0 932.3 0.3 38
2019-06-15 12:00:00 17.1 9 Oeste 18 Noroeste 0 932.3 0.6 43
2019-06-15 11:00:00 15.4 8 Noroeste 17 Noroeste 0 932.1 0.8 51
2019-06-15 10:00:00 13.6 3 Este 12 Norte 0 932 1.1 59
2019-06-15 09:00:00 11.6 4 Oeste 8 Sudoeste 0 931.7 1 72
2019-06-15 08:00:00 7.5 2 Sudoeste 8 Sudeste 0 931.3 0.6 87
2019-06-15 07:00:00 4.8 3 Sudoeste 10 Oeste 0 930.9 0.3 91
2019-06-15 06:00:00 4.5 8 Oeste 11 Oeste 0 930.7 0.3 88
2019-06-15 05:00:00 5.8 6 Sudoeste 12 Sudoeste 0 930.7 0.5 88
2019-06-15 04:00:00 6.5 5 Sur 11 Sudoeste 0 930.6 0.6 86
2019-06-15 03:00:00 6 9 Oeste 16 Oeste 0 930.4 0.6 82
2019-06-15 02:00:00 6.6 9 Oeste 12 Oeste 0 930.2 0.9 78
2019-06-15 01:00:00 7.5 10 Oeste 13 Oeste 0 930 1.6 72
2019-06-15 00:00:00 9.5 10 Oeste 20 Oeste 0 929.8 1.9 65
2019-06-14 23:00:00 12.3 18 Oeste 37 Oeste 0 929.3 2.2 55
2019-06-14 22:00:00 13 26 Oeste 40 Oeste 0 928.4 2.1 53
2019-06-14 21:00:00 14.4 25 Oeste 44 Oeste 0 927.9 1.9 48
2019-06-14 20:00:00 16.9 26 Oeste 39 Oeste 0 927.1 1.2 39
2019-06-14 19:00:00 18.8 29 Oeste 47 Oeste 0 926.3 0.4 30
2019-06-14 18:00:00 21.7 29 Oeste 43 Oeste 0 926 0.1 26
2019-06-14 17:00:00 20.9 27 Oeste 46 Oeste 0 925.9 0.3 25
2019-06-14 16:00:00 19.7 27 Oeste 43 Oeste 0 925.9 0.6 32
2019-06-14 15:00:00 19.4 24 Sudoeste 37 Oeste 0 925.9 0.7 35
2019-06-14 14:00:00 19.8 20 Oeste 34 Oeste 0 925.6 0.9 36
2019-06-14 13:00:00 18.9 15 Oeste 29 Sudoeste 0 925.3 0.9 39
2019-06-14 12:00:00 18.2 11 Oeste 22 Oeste 0 925.2 1 42
2019-06-14 11:00:00 15.8 9 Oeste 19 Oeste 0 924.7 0.9 51
2019-06-14 10:00:00 13.6 10 Oeste 17 Oeste 0 924.4 1 61
2019-06-14 09:00:00 11.1 10 Oeste 15 Oeste 0 924.2 0.6 70
2019-06-14 08:00:00 7.7 4 Sudoeste 8 Sudoeste 0 923.8 0.2 80
2019-06-14 07:00:00 4.9 2 Norte 6 Nordeste 0 923.4 -0.3 86
2019-06-14 06:00:00 5.2 3 Sur 8 Sudoeste 0 923.6 -0.1 84
2019-06-14 05:00:00 5.9 4 Sur 6 Sudoeste 0 923.6 -0.2 83
2019-06-14 04:00:00 6.5 4 Sudoeste 7 Sudoeste 0 923.7 -0.3 78
2019-06-14 03:00:00 7.2 4 Sur 6 Sudoeste 0 923.7 -0.3 74
2019-06-14 02:00:00 7.8 6 Oeste 7 Oeste 0 923.8 0.1 68
2019-06-14 01:00:00 9.2 5 Oeste 8 Oeste 0 924 1.1 64
2019-06-14 00:00:00 10.6 8 Oeste 14 Oeste 0 924 1.8 58
2019-06-13 23:00:00 12.4 10 Oeste 18 Oeste 0 923.7 1.9 51
2019-06-13 22:00:00 15.4 15 Oeste 29 Oeste 0 922.9 1.3 42
2019-06-13 21:00:00 19 18 Oeste 29 Oeste 0 922.2 0.6 32
2019-06-13 20:00:00 22 19 Oeste 34 Oeste 0 921.8 -0.1 26
2019-06-13 19:00:00 23.5 18 Oeste 35 Oeste 0 921.6 -0.6 25
2019-06-13 18:00:00 24.3 19 Oeste 37 Oeste 0 921.6 -0.8 22
2019-06-13 17:00:00 24 18 Oeste 37 Oeste 0 921.9 -0.7 22
2019-06-13 16:00:00 23.4 21 Oeste 37 Oeste 0 922.2 -0.5 25
2019-06-13 15:00:00 22 17 Sudoeste 36 Oeste 0 922.4 -0.6 28
2019-06-13 14:00:00 21.4 14 Oeste 26 Oeste 0 922.6 -0.3 30
2019-06-13 13:00:00 19.3 12 Sudoeste 24 Oeste 0 922.7 -0.3 35
2019-06-13 12:00:00 17.6 7 Sudoeste 16 Oeste 0 923 0.2 38
2019-06-13 11:00:00 15.9 5 Oeste 14 Oeste 0 922.9 0.3 48
2019-06-13 10:00:00 13.4 6 Noroeste 16 Noroeste 0 923 0.6 55
2019-06-13 09:00:00 11.4 8 Oeste 13 Oeste 0 922.8 0.5 67
2019-06-13 08:00:00 7.4 3 Sudoeste 8 Sudoeste 0 922.6 0.2 79
2019-06-13 07:00:00 4.1 2 Sur 7 Nordeste 0 922.4 -0.1 80
2019-06-13 06:00:00 4.5 3 Sudoeste 5 Oeste 0 922.3 -0.3 77
2019-06-13 05:00:00 5.4 5 Oeste 8 Noroeste 0 922.4 -0.4 74
2019-06-13 04:00:00 6.3 5 Oeste 10 Noroeste 0 922.5 -0.5 69
2019-06-13 03:00:00 7.4 8 Noroeste 13 Oeste 0 922.6 -0.5 64
2019-06-13 02:00:00 8.6 9 Noroeste 13 Noroeste 0 922.8 -0.3 59
2019-06-13 01:00:00 9.9 10 Noroeste 13 Noroeste 0 923 0.3 54
2019-06-13 00:00:00 11.2 10 Noroeste 14 Noroeste 0 923.1 0.6 49
2019-06-12 23:00:00 13 11 Noroeste 15 Noroeste 0 923.1 0.5 42
2019-06-12 22:00:00 15.5 8 Norte 19 Noroeste 0 922.7 0 29
2019-06-12 21:00:00 18.3 13 Noroeste 23 Noroeste 0 922.5 -0.8 22
2019-06-12 20:00:00 21.6 14 Noroeste 26 Oeste 0 922.6 -1 15
2019-06-12 19:00:00 23.1 14 Oeste 43 Oeste 0 922.7 -1.3 15
2019-06-12 18:00:00 22.6 15 Oeste 29 Oeste 0 923.3 -1.3 15
2019-06-12 17:00:00 22.5 10 Sudoeste 27 Oeste 0 923.6 -1.8 20
2019-06-12 16:00:00 20.8 6 Sur 24 Sudoeste 0 924 -2 19
2019-06-12 15:00:00 20.6 7 Oeste 22 Oeste 0 924.6 -1.7 21
2019-06-12 14:00:00 18.9 5 Norte 19 Sudeste 0 925.4 -1.3 27
2019-06-12 13:00:00 17.7 8 Sudeste 18 Este 0 926 -0.9 28
2019-06-12 12:00:00 16.1 8 Sudeste 19 Sudeste 0 926.3 -0.6 31
2019-06-12 11:00:00 15.1 12 Este 23 Este 0 926.7 0.2 35
2019-06-12 10:00:00 13.3 12 Este 24 Este 0 926.9 0.2 42
2019-06-12 09:00:00 10 9 Nordeste -- -- -- 926.9 0.3 56
2019-06-12 08:00:00 6.9 8 Nordeste 12 Nordeste 0 926.5 -0.2 65
2019-06-12 07:00:00 3.8 3 Norte 8 Nordeste 0 926.7 -0.4 73
2019-06-12 06:00:00 4.7 5 Nordeste 6 Norte 0 926.6 -0.6 70
2019-06-12 05:00:00 5.2 4 Este 6 Sur 0 926.7 -0.8 68
2019-06-12 04:00:00 6.7 4 Sudeste 13 Nordeste 0 927.1 -0.5 62
2019-06-12 03:00:00 8.3 10 Nordeste 17 Nordeste 0 927.2 -0.3 57
2019-06-12 02:00:00 8.8 9 Nordeste 15 Nordeste 0 927.5 0.3 54
2019-06-12 01:00:00 9.3 9 Nordeste 12 Nordeste 0 927.6 0.9 52
2019-06-12 00:00:00 11.2 9 Norte 19 Norte 0 927.5 1.1 47
2019-06-11 23:00:00 12.8 11 Norte 19 Norte 0 927.2 0.7 44
2019-06-11 22:00:00 15.5 10 Noroeste 17 Nordeste 0 926.7 0.2 34
2019-06-11 21:00:00 18.4 7 Norte 21 Nordeste 0 926.4 -0.2 22
2019-06-11 20:00:00 20.1 12 Norte 27 Norte 0 926.5 0 18
2019-06-11 19:00:00 20.6 13 Norte 26 Norte 0 926.5 -0.4 19
2019-06-11 18:00:00 20.6 17 Nordeste 36 Nordeste 0 926.6 -0.2 19
2019-06-11 17:00:00 20.6 21 Nordeste 34 Nordeste 0 926.5 -0.6 19
2019-06-11 16:00:00 20.1 19 Norte 34 Norte 0 926.9 -0.2 18
2019-06-11 15:00:00 19.4 11 Nordeste 31 Nordeste 0 926.8 -0.2 24
2019-06-11 14:00:00 18.9 21 Nordeste 36 Nordeste 0 927.1 0.2 26
2019-06-11 13:00:00 18 18 Nordeste 36 Norte 0 927.1 0.1 29
2019-06-11 12:00:00 17.2 18 Nordeste 33 Norte 0 927 0 35
2019-06-11 11:00:00 13.9 12 Norte 28 Nordeste 0 926.9 0.2 46
2019-06-11 10:00:00 12.9 13 Norte 24 Norte 0 927 0.6 53
2019-06-11 09:00:00 11.3 11 Norte 19 Norte 0 927 0.8 60
2019-06-11 08:00:00 9.6 9 Noroeste 16 Noroeste 0 926.7 0.2 72
2019-06-11 07:00:00 9.1 9 Noroeste 17 Noroeste 0 926.4 -0.5 76
2019-06-11 06:00:00 9.6 9 Noroeste 16 Norte 0 926.2 -0.8 76
2019-06-11 05:00:00 9.6 5 Norte 10 Noroeste 0 926.5 -0.8 74
2019-06-11 04:00:00 10.1 8 Noroeste 19 Noroeste 0 926.9 -0.7 70
2019-06-11 03:00:00 10.9 7 Noroeste 21 Noroeste 0 927 -0.9 64
2019-06-11 02:00:00 11.8 12 Oeste 29 Noroeste 0 927.3 -0.4 61
2019-06-11 01:00:00 12.7 15 Noroeste 33 Noroeste 0 927.6 0.4 60
2019-06-11 00:00:00 13.5 11 Noroeste 23 Noroeste 0 927.9 1 57
2019-06-10 23:00:00 15.3 13 Noroeste 33 Noroeste 0 927.7 1.1 51
2019-06-10 22:00:00 16.8 19 Oeste 37 Oeste 0 927.2 0.1 45
2019-06-10 21:00:00 19.3 26 Oeste 37 Oeste 0 926.9 -0.6 35
2019-06-10 20:00:00 22 20 Oeste 31 Oeste 0 926.6 -1.4 29
2019-06-10 19:00:00 23.3 16 Noroeste 28 Oeste 0 927.1 -1.5 21
2019-06-10 18:00:00 23.8 15 Noroeste 31 Noroeste 0 927.5 -1.7 16
2019-06-10 17:00:00 23.7 11 Oeste 28 Oeste 0 928 -1.7 18
2019-06-10 16:00:00 23.5 15 Oeste 27 Oeste 0 928.6 -1.6 21
2019-06-10 15:00:00 21.7 9 Noroeste 26 Oeste 0 929.2 -1.3 28
2019-06-10 14:00:00 21.2 9 Oeste 21 Oeste 0 929.7 -1 30
2019-06-10 13:00:00 19.4 9 Noroeste 19 Sudoeste 0 930.2 -0.7 37
2019-06-10 12:00:00 18.5 10 Oeste 17 Oeste 0 930.5 -0.4 43
2019-06-10 11:00:00 16.1 4 Sudeste 10 Nordeste 0 930.7 0.2 53
2019-06-10 10:00:00 14.2 4 Norte 13 Norte 0 930.9 0.6 62
2019-06-10 09:00:00 11.2 11 Norte 15 Norte 0 930.9 0.7 73
2019-06-10 08:00:00 8.8 3 Nordeste 13 Noroeste 0 930.5 -0.1 87
2019-06-10 07:00:00 6.7 8 Noroeste 14 Noroeste 0 930.3 -0.5 90
2019-06-10 06:00:00 6.4 7 Noroeste 9 Noroeste 0 930.2 -1.3 88
2019-06-10 05:00:00 7 3 Norte 8 Noroeste 0 930.6 -0.9 86
2019-06-10 04:00:00 7.7 4 Oeste 12 Noroeste 0 930.8 -0.7 80
2019-06-10 03:00:00 8.7 8 Noroeste 17 Noroeste 0 931.5 0.2 80
2019-06-10 02:00:00 9.1 12 Noroeste 14 Noroeste 0 931.5 0.6 77
2019-06-10 01:00:00 10.4 11 Noroeste 18 Noroeste 0 931.5 1.3 70
2019-06-10 00:00:00 11.7 13 Noroeste 18 Noroeste 0 931.3 1.5 66
2019-06-09 23:00:00 13 12 Noroeste 20 Noroeste 0 930.9 1.6 61
2019-06-09 22:00:00 15.1 13 Noroeste 30 Noroeste 0 930.2 1.1 53
2019-06-09 21:00:00 17.6 19 Noroeste 33 Noroeste 0 929.8 1 43
2019-06-09 20:00:00 19.7 19 Noroeste 36 Noroeste 0 929.3 0.3 35
2019-06-09 19:00:00 20.7 22 Noroeste 41 Oeste 0 929.1 0 34
2019-06-09 18:00:00 22 18 Oeste 39 Oeste 0 928.8 -0.7 29
2019-06-09 17:00:00 21.9 18 Oeste 32 Oeste 0 929 -0.9 30
2019-06-09 16:00:00 23.7 11 Oeste 31 Noroeste 0 929.1 -0.9 29
2019-06-09 15:00:00 22.7 14 Oeste 34 Noroeste 0 929.5 -0.5 30
2019-06-09 14:00:00 22.1 17 Oeste 29 Oeste 0 929.9 -0.3 31
2019-06-09 13:00:00 20.7 14 Oeste 31 Oeste 0 930 -0.3 29
2019-06-09 12:00:00 18.7 18 Oeste 27 Oeste 0 930 -0.2 38
2019-06-09 11:00:00 16.1 9 Oeste 19 Oeste 0 930.2 0.5 48
2019-06-09 10:00:00 14.3 9 Oeste 16 Oeste 0 930.3 1 63
2019-06-09 09:00:00 11.1 10 Sudoeste 15 Sudoeste 0 930.2 1.1 77
2019-06-09 08:00:00 7.7 5 Sur 9 Sur 0 929.7 0.4 85
2019-06-09 07:00:00 5.7 3 Oeste 13 Sudoeste 0 929.3 -0.3 88
2019-06-09 06:00:00 6.3 8 Sudoeste 12 Sudoeste 0 929.1 -0.9 88
2019-06-09 05:00:00 7 5 Sudoeste 8 Sur 0 929.3 -0.6 86
2019-06-09 04:00:00 8 5 Sudoeste 9 Sur 0 929.6 -0.6 83
2019-06-09 03:00:00 8.5 6 Sudoeste 8 Sudoeste 0 930 -0.3 76
2019-06-09 02:00:00 9.7 6 Oeste 15 Oeste 0 929.9 0 69
2019-06-09 01:00:00 11.6 13 Oeste 17 Oeste 0 930.2 1 65
2019-06-09 00:00:00 12.6 9 Oeste 15 Oeste 0 930.3 1.5 59
2019-06-08 23:00:00 13.8 9 Noroeste 13 Noroeste 0 929.9 1.2 48
2019-06-08 22:00:00 16.4 9 Noroeste 22 Noroeste 0 929.2 0.7 41
2019-06-08 21:00:00 19.6 10 Noroeste 25 Oeste 0 928.8 0.2 31
2019-06-08 20:00:00 20.6 15 Noroeste 32 Noroeste 0 928.7 -0.4 29
2019-06-08 19:00:00 24.5 17 Oeste 32 Oeste 0 928.5 -1.1 23
2019-06-08 18:00:00 24.8 10 Oeste 25 Oeste 0 928.6 -1.5 21
2019-06-08 17:00:00 24.4 8 Sudoeste 47 Sudoeste 0 929.1 -1.7 23
2019-06-08 16:00:00 24 7 Sudoeste 22 Sudoeste 0 929.6 -1.8 24
2019-06-08 15:00:00 22.5 9 Sur 24 Sudoeste 0 930.1 -1.5 24
2019-06-08 14:00:00 21.6 9 Este 23 Nordeste 0 930.8 -1.4 25
2019-06-08 13:00:00 19.9 8 Nordeste 22 Este 0 931.4 -1.1 30
2019-06-08 12:00:00 18.7 15 Este 27 Este 0 931.6 -1.1 34
2019-06-08 11:00:00 16.2 17 Nordeste 26 Nordeste 0 932.2 -0.6 41
2019-06-08 10:00:00 13.6 17 Nordeste 28 Nordeste 0 932.5 -0.2 48
2019-06-08 09:00:00 10.4 15 Nordeste 24 Nordeste 0 932.7 0 65
2019-06-08 08:00:00 6.8 9 Nordeste 15 Nordeste 0 932.8 0.1 78
2019-06-08 07:00:00 4.4 10 Nordeste 15 Nordeste 0 932.7 -0.1 84
2019-06-08 06:00:00 5 9 Este 14 Nordeste 0 932.7 -0.3 82
2019-06-08 05:00:00 5 7 Nordeste 10 Nordeste 0 932.7 -0.4 81
2019-06-08 04:00:00 5.4 8 Nordeste 14 Nordeste 0 932.8 -0.3 81
2019-06-08 03:00:00 6.4 3 Nordeste 6 Nordeste 0 933 -0.2 76
2019-06-08 02:00:00 7.6 6 Norte 12 Noroeste 0 933.1 0.4 70
2019-06-08 01:00:00 8.1 9 Noroeste 14 Noroeste 0 933.1 1 66
2019-06-08 00:00:00 9.3 8 Noroeste 13 Noroeste 0 933.2 1.6 61
2019-06-07 23:00:00 10.2 9 Norte 12 Norte 0 932.7 1.4 59
2019-06-07 22:00:00 12 9 Noroeste 18 Noroeste 0 932.1 1.1 55
2019-06-07 21:00:00 14.9 14 Noroeste 26 Noroeste 0 931.6 1 42
2019-06-07 20:00:00 18 10 Noroeste 24 Oeste 0 931.3 0.7 32
2019-06-07 19:00:00 18.5 13 Noroeste 28 Noroeste 0 931 0.5 35
2019-06-07 18:00:00 19.4 16 Oeste 30 Oeste 0 930.6 0.4 29
2019-06-07 17:00:00 20 19 Oeste 28 Oeste 0 930.6 0.4 32
2019-06-07 16:00:00 17.8 13 Oeste 29 Sudoeste 0 930.5 0.7 37
2019-06-07 15:00:00 16.4 13 Oeste 28 Oeste 0 930.2 0.9 42
2019-06-07 14:00:00 17 13 Oeste 22 Sudoeste 0 930.2 1.6 44
2019-06-07 13:00:00 14.1 12 Sudoeste 23 Oeste 0 929.8 1.8 52
2019-06-07 12:00:00 12.2 14 Oeste 25 Oeste 0 929.3 2 63
2019-06-07 11:00:00 12 15 Oeste 26 Oeste 0 928.6 2.2 69
2019-06-07 10:00:00 10.7 19 Oeste 28 Oeste 0 928 2.4 78
2019-06-07 09:00:00 9 18 Oeste 27 Sudoeste 0 927.3 2.5 82
2019-06-07 08:00:00 6.8 17 Oeste 25 Oeste 0 926.4 2.3 91
2019-06-07 07:00:00 6.1 15 Sudoeste 22 Oeste 0 925.6 2 91
2019-06-07 06:00:00 6.9 14 Oeste 28 Oeste 0 924.8 1.5 91
2019-06-07 05:00:00 6.9 21 Sudoeste 30 Sudoeste 0 924.1 1.3 91
2019-06-07 04:00:00 7.2 21 Sudoeste 32 Sudoeste 0 923.6 1.4 91
2019-06-07 03:00:00 7.2 19 Sudoeste 27 Sudoeste 0 923.3 1.8 91
2019-06-07 02:00:00 7 18 Sudoeste 28 Sudoeste 0 922.8 1.6 91
2019-06-07 01:00:00 8 16 Sudoeste 33 Oeste 0 922.2 2 91
2019-06-07 00:00:00 8.1 26 Oeste 43 Oeste 0.2 921.5 2.9 90
2019-06-06 23:00:00 9 20 Sudoeste 45 Oeste 0 921.2 2.9 92
2019-06-06 22:00:00 9.6 27 Oeste 49 Oeste 5.2 920.2 1.8 90
2019-06-06 21:00:00 12.3 33 Sudoeste 61 Sudoeste 0.4 918.6 0 83
2019-06-06 20:00:00 14 33 Sudoeste 67 Sudoeste 0.2 918.3 -0.8 70
2019-06-06 19:00:00 16.1 41 Sudoeste 74 Sudoeste 0 918.4 -1.6 49
2019-06-06 18:00:00 18.5 41 Sudoeste 69 Sudoeste 0 918.6 -2.1 40
2019-06-06 17:00:00 17.5 39 Sudoeste 64 Sur 0 919.1 -2.6 42
2019-06-06 16:00:00 18.3 28 Sudoeste 59 Sudoeste 0 920 -2.4 37
2019-06-06 15:00:00 17.9 27 Sudoeste 53 Sudoeste 0 920.7 -2.6 33
2019-06-06 14:00:00 18.2 24 Sudoeste 48 Sur 0 921.7 -2.2 30
2019-06-06 13:00:00 17.3 19 Sudoeste 39 Sudoeste 0 922.4 -2.1 34
2019-06-06 12:00:00 15.5 21 Sudoeste 31 Sudoeste 0 923.3 -1.7 35
2019-06-06 11:00:00 13.4 12 Sudoeste 24 Sudoeste 0 923.9 -1.4 44
2019-06-06 10:00:00 10.8 9 Sur 18 Sur 0 924.5 -0.9 59
2019-06-06 09:00:00 8.7 6 Sudeste 12 Sur 0 925 -0.8 73
2019-06-06 08:00:00 5.8 4 Sur 11 Sudeste 0 925.3 -0.9 82
2019-06-06 07:00:00 3.3 4 Sur 8 Sur 0 925.4 -1.1 85
2019-06-06 06:00:00 3.8 4 Sur 9 Sur 0 925.8 -1 84
2019-06-06 05:00:00 3.8 3 Sur 7 Sur 0 926.2 -0.7 83
2019-06-06 04:00:00 4.2 6 Sudoeste 10 Sudoeste 0 926.5 -0.7 84
2019-06-06 03:00:00 4.6 4 Sur 9 Oeste 0 926.8 -0.5 77
2019-06-06 02:00:00 5 4 Oeste 11 Oeste 0 926.9 -0.2 71
2019-06-06 01:00:00 6.3 4 Sudoeste 10 Oeste 0 927.2 0.6 63
2019-06-06 00:00:00 7.7 8 Oeste 17 Noroeste 0 927.3 1 59
2019-06-05 23:00:00 9.9 13 Noroeste 21 Noroeste 0 927.1 0.9 54
2019-06-05 22:00:00 11.9 10 Oeste 27 Noroeste 0 926.6 0.6 48
2019-06-05 21:00:00 14 15 Noroeste 31 Oeste 0 926.3 0.2 41
2019-06-05 20:00:00 14.9 21 Noroeste 33 Noroeste 0 926.2 0 36
2019-06-05 19:00:00 16.9 19 Oeste 35 Oeste 0 926 -0.5 33
2019-06-05 18:00:00 17.8 23 Noroeste 44 Oeste 0 926.1 -0.3 35
2019-06-05 17:00:00 19.6 25 Oeste 41 Oeste 0 926.2 -0.8 31
2019-06-05 16:00:00 18.7 21 Noroeste 40 Oeste 0 926.5 -0.5 35
2019-06-05 15:00:00 19.5 22 Oeste 35 Noroeste 0 926.4 -0.6 29
2019-06-05 14:00:00 17 22 Noroeste 35 Oeste 0 927 0.4 40
2019-06-05 13:00:00 17.1 21 Oeste 43 Noroeste 0 927 0.6 44
2019-06-05 12:00:00 14.7 20 Oeste 32 Oeste 0 927 1.3 46
2019-06-05 11:00:00 13.9 18 Noroeste 33 Oeste 0 926.6 1.4 51
2019-06-05 10:00:00 12.6 19 Oeste 32 Oeste 0 926.4 1.6 59
2019-06-05 09:00:00 11.3 18 Oeste 29 Oeste 0 925.7 1.2 63
2019-06-05 08:00:00 8.5 14 Oeste 23 Sudoeste 0 925.2 0.8 79
2019-06-05 07:00:00 7.6 12 Oeste 24 Oeste 0 924.8 0.4 80
2019-06-05 06:00:00 7.7 13 Oeste 24 Oeste 0 924.5 0.1 79
2019-06-05 05:00:00 8.2 15 Oeste 24 Oeste 0 924.4 0 78
2019-06-05 04:00:00 6.9 9 Oeste 23 Oeste 0 924.4 0.1 82
2019-06-05 03:00:00 7.4 17 Oeste 26 Oeste 0 924.4 0.2 79
2019-06-05 02:00:00 7.9 13 Oeste 23 Oeste 0 924.4 0.4 78
2019-06-05 01:00:00 8.9 12 Oeste 26 Oeste 0 924.3 0.8 73
2019-06-05 00:00:00 10.4 18 Oeste 27 Oeste 0 924.2 1 66
2019-06-04 23:00:00 12.3 13 Oeste 30 Oeste 0 924 0.6 57
2019-06-04 22:00:00 14.4 17 Oeste 30 Oeste 0 923.5 0.1 46
2019-06-04 21:00:00 15.6 14 Oeste 32 Noroeste 0 923.2 -0.4 47
2019-06-04 20:00:00 16.8 23 Oeste 37 Oeste 0 923.4 -0.8 45
2019-06-04 19:00:00 21 26 Oeste 43 Oeste 0 923.4 -1.1 38
2019-06-04 18:00:00 20.6 30 Oeste 46 Oeste 0 923.6 -0.5 39
2019-06-04 17:00:00 18.9 31 Oeste 44 Oeste 0 924.2 -0.1 48
2019-06-04 16:00:00 18.4 29 Oeste 49 Oeste 0 924.5 0 55
2019-06-04 15:00:00 20.3 26 Oeste 38 Oeste 0 924.1 -0.7 48
2019-06-04 14:00:00 21.2 23 Oeste 41 Oeste 0 924.3 -0.9 44
2019-06-04 13:00:00 22.1 22 Oeste 36 Oeste 0 924.5 -0.9 43
2019-06-04 12:00:00 19.3 16 Sudoeste 28 Sudoeste 0 924.8 -0.3 50
2019-06-04 11:00:00 17.8 16 Sudoeste 30 Sudoeste 0 925.2 0.2 56
2019-06-04 10:00:00 15.8 21 Oeste 35 Sudoeste 0 925.4 0.7 61
2019-06-04 09:00:00 14.2 19 Oeste 28 Sudoeste 0 925.1 0.6 74
2019-06-04 08:00:00 11.1 11 Sudoeste 17 Sudoeste 0 925 0.2 87
2019-06-04 07:00:00 9.3 11 Sudoeste 14 Sudoeste 0 924.7 -0.4 91
2019-06-04 06:00:00 9.7 7 Sudoeste 10 Sudoeste 0 924.5 -1.2 89
2019-06-04 05:00:00 10.1 7 Oeste 11 Oeste 0 924.8 -1.3 87
2019-06-04 04:00:00 11.1 7 Oeste 16 Sudoeste 0 925.1 -1.6 86
2019-06-04 03:00:00 12.5 10 Sudoeste 14 Sudoeste 0 925.7 -1.2 85
2019-06-04 02:00:00 13.4 9 Sudoeste 12 Sudoeste 0 926.1 -0.9 82
2019-06-04 01:00:00 14.2 3 Sudoeste 18 Oeste 0 926.7 0.2 76
2019-06-04 00:00:00 15.5 15 Oeste 24 Oeste 0 926.9 0.8 72
2019-06-03 23:00:00 17.4 16 Oeste 26 Oeste 0 927 1.2 64
2019-06-03 22:00:00 19.9 17 Oeste 32 Oeste 0 926.5 0.6 56
2019-06-03 21:00:00 23 26 Oeste 38 Oeste 0 926.1 -0.2 44
2019-06-03 20:00:00 26.5 26 Oeste 42 Oeste 0 925.8 -0.9 35
2019-06-03 19:00:00 29.1 25 Oeste 42 Oeste 0 925.9 -1.5 30
2019-06-03 18:00:00 30.1 24 Oeste 38 Oeste 0 926.3 -1.8 25
2019-06-03 17:00:00 30.4 24 Oeste 40 Oeste 0 926.7 -1.9 24
2019-06-03 16:00:00 29.3 26 Sudoeste 42 Sudoeste 0 927.4 -1.7 25
2019-06-03 15:00:00 28.2 17 Sudoeste 39 Sudoeste 0 928.1 -1.2 25
2019-06-03 14:00:00 27 13 Sudoeste 30 Sudoeste 0 928.6 -1 28
2019-06-03 13:00:00 26.3 12 Sudoeste 21 Sudoeste 0 929.1 -0.7 29
2019-06-03 12:00:00 24 12 Oeste 18 Oeste 0 929.3 -0.4 28
2019-06-03 11:00:00 21.8 8 Oeste 14 Sudoeste 0 929.6 0.1 33
2019-06-03 10:00:00 18.4 5 Sudoeste 11 Sudoeste 0 929.8 0.5 46
2019-06-03 09:00:00 14.6 7 Sudoeste 10 Sudoeste 0 929.7 0.3 60
2019-06-03 08:00:00 12.5 5 Sur 8 Sur 0 929.5 0.3 66
2019-06-03 07:00:00 11.6 3 Sur 8 Sur 0 929.3 -0.2 68
2019-06-03 06:00:00 12.5 3 Sur 11 Sur 0 929.4 -0.4 64
2019-06-03 05:00:00 13.2 4 Sur 9 Sur 0 929.2 -0.9 62
2019-06-03 04:00:00 14.3 5 Sur 9 Sur 0 929.5 -0.8 53
2019-06-03 03:00:00 14.3 5 Sur 8 Sudoeste 0 929.8 -0.5 53
2019-06-03 02:00:00 15.3 2 Sur 4 Sudoeste 0 930.1 0 50
2019-06-03 01:00:00 16.1 5 Oeste 10 Oeste 0 930.3 0.6 47
2019-06-03 00:00:00 18 4 Noroeste 11 Oeste 0 930.3 0.8 44
2019-06-02 23:00:00 19.6 4 Noroeste 12 Noroeste 0 930.1 1 37
2019-06-02 22:00:00 21.8 7 Noroeste 18 Noroeste 0 929.7 0.7 32
2019-06-02 21:00:00 24.4 13 Noroeste 26 Noroeste 0 929.5 0.5 27
2019-06-02 20:00:00 26.8 19 Oeste 31 Oeste 0 929.1 0 21
2019-06-02 19:00:00 29.7 23 Oeste 37 Oeste 0 929 -0.5 17
2019-06-02 18:00:00 31.5 18 Oeste 40 Oeste 0 929 -0.9 15
2019-06-02 17:00:00 31.8 17 Oeste 32 Oeste 0 929.1 -1.4 14
2019-06-02 16:00:00 32.1 13 Oeste 28 Oeste 0 929.5 -1.5 14
2019-06-02 15:00:00 31.4 11 Oeste 23 Oeste 0 929.9 -1.2 17
2019-06-02 14:00:00 31.7 14 Sudoeste 25 Oeste 0 930.5 -0.8 13
2019-06-02 13:00:00 29.1 10 Sudoeste 21 Oeste 0 931 -0.3 16
2019-06-02 12:00:00 27.7 6 Oeste 14 Oeste 0 931.1 0.1 17
2019-06-02 11:00:00 26 7 Oeste 17 Oeste 0 931.3 0.5 21
2019-06-02 10:00:00 22.6 5 Sudoeste 9 Sudoeste 0 931.3 0.7 30
2019-06-02 09:00:00 18.1 4 Sudoeste 7 Sudoeste 0 931 0.6 45
2019-06-02 08:00:00 13.9 3 Sur 5 Sur 0 930.8 0.4 52
2019-06-02 07:00:00 12.5 0 Calma 5 Sur 0 930.6 0.1 56
2019-06-02 06:00:00 12.9 3 Sur 7 Sur 0 930.4 -0.5 54
2019-06-02 05:00:00 13.6 5 Sur 6 Sur 0 930.4 -0.6 54
2019-06-02 04:00:00 14.7 4 Sur 6 Sudoeste 0 930.5 -0.5 49
2019-06-02 03:00:00 15.9 3 Sur 12 Oeste 0 930.9 -0.3 43
2019-06-02 02:00:00 17.2 8 Oeste 10 Oeste 0 931 0 39
2019-06-02 01:00:00 18.6 10 Noroeste 13 Noroeste 0 931 0.7 34
2019-06-02 00:00:00 19.8 8 Noroeste 12 Noroeste 0 931.2 1.4 37
2019-06-01 23:00:00 21.7 8 Noroeste 17 Noroeste 0 931 1.5 35
2019-06-01 22:00:00 24.3 13 Noroeste 21 Oeste 0 930.3 0.8 30
2019-06-01 21:00:00 28.6 14 Noroeste 24 Noroeste 0 929.8 0 24
2019-06-01 20:00:00 30.2 7 Oeste 32 Sudoeste 0 929.5 -0.8 22
2019-06-01 19:00:00 33 13 Oeste 24 Oeste 0 929.5 -1.4 15
2019-06-01 18:00:00 33.2 9 Nordeste 28 Oeste 0 929.8 -1.6 14
2019-06-01 17:00:00 34.2 15 Oeste 26 Oeste 0 930.3 -1.6 15
2019-06-01 16:00:00 33.7 11 Sudoeste 26 Sur 0 930.9 -1.4 14
2019-06-01 15:00:00 32.9 14 Sudoeste 22 Noroeste 0 931.4 -1.1 15
2019-06-01 14:00:00 32.3 11 Sudoeste 18 Sudoeste 0 931.9 -0.7 14
2019-06-01 13:00:00 30.5 6 Oeste 14 Sudoeste 0 932.3 -0.1 22
2019-06-01 12:00:00 29.7 8 Oeste 16 Oeste 0 932.5 0.3 28
2019-06-01 11:00:00 27.7 8 Sudoeste 13 Sudoeste 0 932.6 0.4 27
2019-06-01 10:00:00 24.3 3 Sudoeste 8 Sur 0 932.4 0.4 35
2019-06-01 09:00:00 20.2 3 Sur 6 Sur 0 932.2 0.4 44
2019-06-01 08:00:00 15.3 5 Sur 12 Sur 0 932.2 0.5 55
2019-06-01 07:00:00 12.3 2 Sudoeste 6 Sudoeste 0 932 0.2 66
2019-06-01 06:00:00 12.9 6 Sur 11 Este 0 931.8 -0.2 63
2019-06-01 05:00:00 13.9 5 Norte 12 Norte 0 931.7 -0.6 59
2019-06-01 04:00:00 14.6 2 Este 7 Noroeste 0 931.8 -0.5 50
2019-06-01 03:00:00 15.8 4 Sur 8 Sur 0 932 -0.3 45
2019-06-01 02:00:00 17 3 Sudoeste 14 Oeste 0 932.3 0.1 39
2019-06-01 01:00:00 18.4 7 Nordeste 15 Este 0 932.3 0.3 34
2019-06-01 00:00:00 19.1 7 Noroeste 9 Noroeste 0 932.3 0.4 31
2019-05-31 23:00:00 21 6 Noroeste 8 Noroeste 0 932.2 0.3 29
2019-05-31 22:00:00 24.8 6 Noroeste 8 Oeste 0 932 -0.3 23
2019-05-31 21:00:00 28.7 6 Oeste 11 Oeste 0 931.9 -0.6 21
2019-05-31 20:00:00 31.8 7 Oeste 17 Oeste 0 931.9 -1.1 14
2019-05-31 19:00:00 32.1 8 Noroeste 20 Oeste 0 932.3 -1 14
2019-05-31 18:00:00 31.9 9 Sudoeste 15 Sudoeste 0 932.5 -1.3 14
2019-05-31 17:00:00 32.3 9 Oeste 17 Oeste 0 933 -1.3 14
2019-05-31 16:00:00 31.5 9 Oeste 20 Oeste 0 933.3 -1.3 16
2019-05-31 15:00:00 30.9 6 Norte 23 Norte 0 933.8 -1 17
2019-05-31 14:00:00 29.6 5 Nordeste 13 Norte 0 934.3 -0.7 20
2019-05-31 13:00:00 28.9 5 Oeste 15 Noroeste 0 934.6 -0.2 22
2019-05-31 12:00:00 26.5 6 Nordeste 14 Nordeste 0 934.8 0.4 24
2019-05-31 11:00:00 24.3 9 Este 15 Nordeste 0 935 0.6 30
2019-05-31 10:00:00 21.3 10 Nordeste 23 Nordeste 0 934.8 0.7 38
2019-05-31 09:00:00 17.9 14 Nordeste 21 Nordeste 0 934.4 0.5 49
2019-05-31 08:00:00 14 9 Nordeste 19 Nordeste 0 934.4 0.4 58
2019-05-31 07:00:00 12.2 12 Nordeste 17 Nordeste 0 934.1 -0.1 59
2019-05-31 06:00:00 13.2 12 Nordeste 20 Nordeste 0 933.9 -0.6 54
2019-05-31 05:00:00 14.6 14 Nordeste 22 Este 0 934 -0.8 48
2019-05-31 04:00:00 15.2 12 Este 18 Este 0 934.2 -0.6 44
2019-05-31 03:00:00 16.9 13 Este 20 Este 0 934.5 -0.3 39
2019-05-31 02:00:00 17.4 14 Este 22 Este 0 934.8 0.1 37
2019-05-31 01:00:00 18.1 12 Este 18 Este 0 934.8 0.6 35
2019-05-31 00:00:00 18.2 8 Este 12 Este 0 934.8 0.9 35
2019-05-30 23:00:00 19.6 7 Este 11 Este 0 934.7 0.9 32
2019-05-30 22:00:00 22.5 8 Nordeste 15 Nordeste 0 934.2 0.1 27
2019-05-30 21:00:00 25.8 10 Nordeste 22 Nordeste 0 933.9 -0.6 20
2019-05-30 20:00:00 28.3 13 Nordeste 23 Nordeste 0 933.8 -1.1 19
2019-05-30 19:00:00 29.2 16 Nordeste 30 Nordeste 0 934.1 -1 16
2019-05-30 18:00:00 29.7 15 Este 30 Este 0 934.5 -1.2 15
2019-05-30 17:00:00 29.3 18 Este 33 Nordeste 0 934.9 -1.2 16
2019-05-30 16:00:00 29.2 16 Este 33 Nordeste 0 935.1 -1.3 16
2019-05-30 15:00:00 28.2 16 Nordeste 40 Este 0 935.7 -1 20
2019-05-30 14:00:00 26.8 15 Este 28 Nordeste 0 936.1 -0.7 21
2019-05-30 13:00:00 25.7 17 Este 30 Este 0 936.4 -0.6 26
2019-05-30 12:00:00 23.4 14 Este 28 Este 0 936.7 -0.2 31
2019-05-30 11:00:00 21 19 Este 30 Este 0 936.8 0.3 37
2019-05-30 10:00:00 18.1 15 Este 25 Este 0 937 1 46
2019-05-30 09:00:00 14.9 11 Este 20 Nordeste 0 936.9 1.3 57
2019-05-30 08:00:00 10.9 11 Este 19 Nordeste 0 936.5 1 70
2019-05-30 07:00:00 9.2 12 Nordeste 23 Este 0 936 0.2 77
2019-05-30 06:00:00 10.1 14 Este 22 Este 0 935.6 -0.4 72
2019-05-30 05:00:00 11.4 17 Este 23 Este 0 935.5 -0.7 66
2019-05-30 04:00:00 12.3 15 Este 29 Este 0 935.8 -0.2 63
2019-05-30 03:00:00 12.5 13 Este 19 Este 0 936 0.3 60
2019-05-30 02:00:00 13.3 12 Este 18 Este 0 936.2 0.9 57
2019-05-30 01:00:00 14 10 Este 18 Este 0 936 1.4 53
2019-05-30 00:00:00 15.1 11 Este 15 Este 0 935.7 1.4 48
2019-05-29 23:00:00 16.6 9 Este 13 Este 0 935.3 1.3 45
2019-05-29 22:00:00 19.1 10 Este 24 Este 0 934.6 0.5 37
2019-05-29 21:00:00 22.3 16 Este 29 Nordeste 0 934.3 0.1 29
2019-05-29 20:00:00 24.4 17 Nordeste 30 Este 0 934 -0.5 25
2019-05-29 19:00:00 25.4 16 Nordeste 32 Nordeste 0 934.1 -0.6 24
2019-05-29 18:00:00 25.4 18 Nordeste 35 Nordeste 0 934.2 -0.9 24
2019-05-29 17:00:00 25.2 18 Este 30 Este 0 934.5 -0.9 27
2019-05-29 16:00:00 25.1 18 Este 32 Nordeste 0 934.7 -0.9 27
2019-05-29 15:00:00 23.6 18 Nordeste 32 Nordeste 0 935.1 -0.5 27
2019-05-29 14:00:00 22.6 17 Este 33 Este 0 935.4 -0.3 31
2019-05-29 13:00:00 20.5 18 Este 42 Este 0 935.6 0 34
2019-05-29 12:00:00 18.5 23 Este 37 Este 0 935.6 0.3 37
2019-05-29 11:00:00 16.2 24 Este 40 Este 0 935.7 0.8 42
2019-05-29 10:00:00 13.7 32 Este 49 Este 0 935.6 1.2 49
2019-05-29 09:00:00 11.7 26 Este 43 Este 0 935.3 1.2 55
2019-05-29 08:00:00 9.2 21 Este 30 Este 0 934.9 1 63
2019-05-29 07:00:00 8.1 19 Este 32 Este 0 934.4 0.7 66
2019-05-29 06:00:00 8.4 21 Este 37 Este 0 934.1 0.6 64
2019-05-29 05:00:00 8.8 21 Este 35 Este 0 933.9 0.4 61
2019-05-29 04:00:00 9.8 23 Este 36 Este 0 933.7 0.6 55
2019-05-29 03:00:00 11.1 29 Este 41 Este 0 933.5 1.1 50
2019-05-29 02:00:00 12.3 22 Este 36 Nordeste 0 933.5 2 48
2019-05-29 01:00:00 13.8 21 Nordeste 31 Nordeste 0 933.1 2.6 49
2019-05-29 00:00:00 15.4 19 Nordeste 30 Este 0 932.4 2.4 42
2019-05-28 23:00:00 17.1 20 Nordeste 35 Nordeste 0 931.5 1.8 34
2019-05-28 22:00:00 19 7 Nordeste 14 Nordeste 0 930.5 0.9 35
2019-05-28 21:00:00 21.8 7 Nordeste 18 Nordeste 0 930 0 29
2019-05-28 20:00:00 23.9 13 Nordeste 25 Nordeste 0 929.7 -0.4 24
2019-05-28 19:00:00 24.6 12 Nordeste 26 Nordeste 0 929.6 -0.4 23
2019-05-28 18:00:00 24 18 Nordeste 31 Nordeste 0 930 -0.4 23
2019-05-28 17:00:00 24.1 13 Norte 31 Nordeste 0 930.1 -0.6 23
2019-05-28 16:00:00 23.6 14 Norte 30 Nordeste 0 930 -0.6 24
2019-05-28 15:00:00 22.5 17 Nordeste 30 Nordeste 0 930.4 -0.1 26
2019-05-28 14:00:00 21.9 15 Nordeste 33 Nordeste 0 930.7 0.3 27
2019-05-28 13:00:00 20.3 17 Nordeste 32 Nordeste 0 930.6 0.3 31
2019-05-28 12:00:00 18.7 18 Nordeste 32 Este 0 930.5 0.6 32
2019-05-28 11:00:00 16.9 18 Este 34 Nordeste 0 930.4 1.2 41
2019-05-28 10:00:00 14.7 21 Nordeste 32 Este 0 930.3 1.8 49
2019-05-28 09:00:00 12.1 20 Este 31 Este 0 929.9 1.5 60
2019-05-28 08:00:00 9.9 16 Nordeste 26 Nordeste 0 929.2 1.2 73
2019-05-28 07:00:00 7.9 13 Nordeste 23 Nordeste 0 928.5 0.8 82
2019-05-28 06:00:00 9 15 Nordeste 23 Nordeste 0 928.4 0.5 80
2019-05-28 05:00:00 10 14 Nordeste 23 Nordeste 0 928 0.4 77
2019-05-28 04:00:00 11.4 16 Nordeste 24 Nordeste 0 927.7 0.2 75
2019-05-28 03:00:00 12.7 16 Nordeste 24 Nordeste 0 927.9 0.5 71
2019-05-28 02:00:00 14 14 Nordeste 25 Nordeste 0 927.6 0.8 68
2019-05-28 01:00:00 15.9 14 Nordeste 21 Nordeste 0 927.5 1.3 54
2019-05-28 00:00:00 16.8 12 Norte 20 Norte 0 927.4 1.3 56
2019-05-27 23:00:00 16.6 12 Noroeste 14 Noroeste 0 926.8 1 56
2019-05-27 22:00:00 19.1 12 Noroeste 22 Noroeste 0 926.2 0.3 47
2019-05-27 21:00:00 22.3 12 Noroeste 23 Oeste 0 926.1 0.1 40
2019-05-27 20:00:00 25.2 15 Oeste 28 Noroeste 0 925.8 -0.5 33
2019-05-27 19:00:00 25.2 14 Noroeste 24 Noroeste 0 925.9 -1 31
2019-05-27 18:00:00 25.3 8 Noroeste 24 Oeste 0 926 -1.2 30
2019-05-27 17:00:00 25.6 10 Norte 28 Noroeste 0 926.3 -1.4 32
2019-05-27 16:00:00 26.5 9 Noroeste 28 Noroeste 0 926.9 -1.3 28
2019-05-27 15:00:00 25.6 12 Noroeste 27 Noroeste 0 927.2 -1.3 30
2019-05-27 14:00:00 24.8 10 Noroeste 21 Oeste 0 927.7 -1.2 32
2019-05-27 13:00:00 24.3 9 Noroeste 19 Noroeste 0 928.2 -0.6 33
2019-05-27 12:00:00 22.6 7 Norte 18 Nordeste 0 928.5 -0.1 34
2019-05-27 11:00:00 21.3 9 Este 21 Este 0 928.9 0.4 35
2019-05-27 10:00:00 19.3 14 Este 20 Este 0 928.8 0.5 44
2019-05-27 09:00:00 16 10 Este 17 Nordeste 0 928.6 0.8 59
2019-05-27 08:00:00 12.7 9 Este 18 Este 0 928.5 0.5 69
2019-05-27 07:00:00 10.3 10 Nordeste 17 Este 0 928.3 0.2 78
2019-05-27 06:00:00 10.8 8 Este 16 Nordeste 0 927.8 -0.9 76
2019-05-27 05:00:00 12.7 6 Norte 15 Noroeste 0 928 -0.8 69
2019-05-27 04:00:00 12.9 9 Noroeste 11 Noroeste 0 928.1 -1.1 68
2019-05-27 03:00:00 13.5 10 Oeste 15 Oeste 0 928.7 -0.7 66
2019-05-27 02:00:00 14.8 9 Noroeste 19 Oeste 0 928.8 -0.7 60
2019-05-27 01:00:00 15.6 10 Noroeste 22 Oeste 0 929.2 0.2 55
2019-05-27 00:00:00 16.8 13 Oeste 19 Oeste 0 929.4 0.2 51
2019-05-26 23:00:00 18.4 9 Oeste 20 Noroeste 0 929.5 0.2 48
2019-05-26 22:00:00 21.2 12 Noroeste 18 Oeste 0 929 -0.6 40
2019-05-26 21:00:00 24.2 7 Oeste 22 Noroeste 0 929.2 -0.9 35
2019-05-26 20:00:00 26.7 13 Noroeste 22 Noroeste 0 929.3 -1.2 27
2019-05-26 19:00:00 26.9 11 Norte 22 Norte 0 929.6 -1.5 25
2019-05-26 18:00:00 27.2 12 Norte 23 Nordeste 0 930.1 -1.4 25
2019-05-26 17:00:00 26.4 12 Nordeste 26 Nordeste 0 930.5 -1.5 27
2019-05-26 16:00:00 25.6 15 Nordeste 30 Nordeste 0 931.1 -1.4 30
2019-05-26 15:00:00 24.3 15 Nordeste 26 Nordeste 0 931.5 -1.4 31
2019-05-26 14:00:00 23.1 13 Nordeste 23 Nordeste 0 932 -1.1 35
2019-05-26 13:00:00 21.1 12 Norte 24 Nordeste 0 932.5 -0.9 40
2019-05-26 12:00:00 19.1 12 Nordeste 24 Este 0 932.9 -0.6 44
2019-05-26 11:00:00 17.5 13 Nordeste 26 Este 0 933.1 -0.2 48
2019-05-26 10:00:00 15 15 Este 29 Este 0 933.4 0.5 56
2019-05-26 09:00:00 12.3 15 Este 24 Este 0 933.5 0.7 63
2019-05-26 08:00:00 9.2 12 Este 18 Este 0 933.3 0.3 74
2019-05-26 07:00:00 7.8 13 Este 21 Este 0 932.9 0.2 78
2019-05-26 06:00:00 8.3 14 Este 22 Este 0 932.8 0.1 75
2019-05-26 05:00:00 9.1 13 Nordeste 27 Este 0 933 0.3 70
2019-05-26 04:00:00 10.3 18 Este 26 Este 0 932.7 0 64
2019-05-26 03:00:00 11.3 14 Este 25 Este 0 932.7 0.3 58
2019-05-26 02:00:00 12.4 18 Nordeste 24 Este 0 932.7 0.7 56
2019-05-26 01:00:00 13.5 17 Nordeste 22 Nordeste 0 932.7 1.2 50
2019-05-26 00:00:00 13.3 8 Este 14 Este 0 932.4 1 51
2019-05-25 23:00:00 14.9 2 Este 10 Este 0 932 0.7 46
2019-05-25 22:00:00 17.5 9 Este 13 Este 0 931.5 0 36
2019-05-25 21:00:00 20.3 9 Nordeste 21 Nordeste 0 931.4 -0.3 29
2019-05-25 20:00:00 22.4 14 Nordeste 30 Nordeste 0 931.3 -0.5 26
2019-05-25 19:00:00 22.9 13 Nordeste 31 Este 0 931.5 -0.4 25
2019-05-25 18:00:00 22.5 19 Nordeste 40 Nordeste 0 931.7 -0.6 25
2019-05-25 17:00:00 22.5 19 Nordeste 38 Nordeste 0 931.8 -0.7 25
2019-05-25 16:00:00 21.8 16 Nordeste 29 Nordeste 0 931.9 -0.8 29
2019-05-25 15:00:00 21.3 15 Nordeste 31 Nordeste 0 932.3 -0.8 30
2019-05-25 14:00:00 20.2 17 Nordeste 36 Nordeste 0 932.5 -0.7 38
2019-05-25 13:00:00 18.9 24 Nordeste 40 Nordeste 0 932.7 -0.5 39
2019-05-25 12:00:00 17.7 22 Este 37 Nordeste 0 933.1 0.2 42
2019-05-25 11:00:00 16.4 22 Nordeste 39 Nordeste 0 933.2 0.7 47
2019-05-25 10:00:00 14.3 24 Este 41 Este 0 933.2 0.9 56
2019-05-25 09:00:00 11.8 22 Este 32 Este 0 932.9 1 65
2019-05-25 08:00:00 8.4 14 Este 19 Nordeste 0 932.5 0.8 80
2019-05-25 07:00:00 6.8 13 Nordeste 18 Este 0 932.3 0.6 86
2019-05-25 06:00:00 7 10 Nordeste 23 Nordeste 0 931.9 0.1 84
2019-05-25 05:00:00 7.8 15 Nordeste 23 Nordeste 0 931.7 -0.1 81
2019-05-25 04:00:00 8.7 14 Nordeste 25 Este 0 931.7 0 77
2019-05-25 03:00:00 9.3 18 Nordeste 30 Nordeste 0 931.8 0.6 73
2019-05-25 02:00:00 10.2 23 Nordeste 32 Nordeste 0 931.8 1.6 66
2019-05-25 01:00:00 11.6 18 Nordeste 33 Este 0 931.7 2.5 57
2019-05-25 00:00:00 13.5 20 Nordeste 35 Este 0 931.2 2.6 52
2019-05-24 23:00:00 15.5 18 Nordeste 33 Nordeste 0 930.2 2 43
2019-05-24 22:00:00 17.2 16 Nordeste 30 Nordeste 0 929.2 1 32
2019-05-24 21:00:00 19.5 12 Nordeste 28 Nordeste 0 928.6 0.2 28
2019-05-24 20:00:00 20.9 20 Nordeste 30 Nordeste 0 928.2 -0.4 24
2019-05-24 19:00:00 22.1 18 Nordeste 37 Norte 0 928.2 -0.8 23
2019-05-24 18:00:00 22.4 16 Nordeste 33 Norte 0 928.4 -1.1 20
2019-05-24 17:00:00 22.6 17 Nordeste 34 Norte 0 928.6 -1.1 22
2019-05-24 16:00:00 21.5 15 Nordeste 32 Norte 0 929 -0.9 24
2019-05-24 15:00:00 20.8 19 Nordeste 36 Nordeste 0 929.5 -0.4 28
2019-05-24 14:00:00 20.4 15 Nordeste 32 Nordeste 0 929.7 -0.2 28
2019-05-24 13:00:00 18.9 19 Nordeste 35 Nordeste 0 929.9 0 28
2019-05-24 12:00:00 18.1 20 Nordeste 37 Nordeste 0 929.9 0.1 33
2019-05-24 11:00:00 16.4 21 Nordeste 35 Nordeste 0 929.9 0.6 35
2019-05-24 10:00:00 14.3 22 Nordeste 36 Nordeste 0 929.9 1 48
2019-05-24 09:00:00 12.4 19 Nordeste 29 Nordeste 0 929.8 1.1 61
2019-05-24 08:00:00 9.9 15 Nordeste 21 Nordeste 0 929.3 0.3 79
2019-05-24 07:00:00 7.8 8 Norte 15 Noroeste 0 928.9 -0.1 82
2019-05-24 06:00:00 9.6 10 Norte 16 Nordeste 0 928.7 -0.8 78
2019-05-24 05:00:00 9.2 9 Noroeste 10 Noroeste 0 929 -0.8 80
2019-05-24 04:00:00 9.3 8 Noroeste 15 Noroeste 0 929 -0.8 78
2019-05-24 03:00:00 10.2 8 Noroeste 16 Noroeste 0 929.5 -0.1 75
2019-05-24 02:00:00 10.8 6 Oeste 13 Oeste 0 929.8 0.3 70
2019-05-24 01:00:00 12.3 6 Noroeste 14 Noroeste 0 929.8 0.5 64
2019-05-24 00:00:00 13.6 7 Oeste 15 Noroeste 0 929.6 0.6 60
2019-05-23 23:00:00 14.7 9 Noroeste 21 Noroeste 0 929.5 1 57
2019-05-23 22:00:00 15.5 13 Noroeste 28 Noroeste 0 929.3 1 59
2019-05-23 21:00:00 18.5 17 Noroeste 32 Noroeste 0 929 0.5 51
2019-05-23 20:00:00 21.4 20 Noroeste 37 Noroeste 0 928.5 -0.1 45
2019-05-23 19:00:00 24.6 19 Oeste 30 Oeste 0 928.3 -0.7 26
2019-05-23 18:00:00 25.7 19 Oeste 33 Oeste 0 928.5 -0.9 26
2019-05-23 17:00:00 26.2 18 Oeste 32 Sudoeste 0 928.6 -1.1 25
2019-05-23 16:00:00 25.7 18 Oeste 30 Noroeste 0 929 -1.1 26
2019-05-23 15:00:00 24.8 13 Oeste 26 Noroeste 0 929.4 -1 29
2019-05-23 14:00:00 24.7 15 Oeste 26 Oeste 0 929.7 -0.8 32
2019-05-23 13:00:00 22.8 15 Oeste 28 Noroeste 0 930.1 -0.1 33
2019-05-23 12:00:00 21.9 17 Oeste 26 Oeste 0 930.4 0.5 44
2019-05-23 11:00:00 17.8 14 Noroeste 23 Noroeste 0 930.5 1.1 57
2019-05-23 10:00:00 15.1 13 Oeste 19 Noroeste 0 930.2 0.8 72
2019-05-23 09:00:00 12.7 5 Sudoeste 14 Oeste 0 929.9 0.6 82
2019-05-23 08:00:00 11.3 3 Sudoeste 8 Sudoeste 0 929.4 0 85
2019-05-23 07:00:00 10.8 4 Sur 8 Sur 0 929.4 -0.2 85
2019-05-23 06:00:00 11.1 3 Sur 10 Sudoeste 0 929.3 -0.6 85
2019-05-23 05:00:00 11.2 4 Sur 8 Sur 0 929.4 -0.6 86
2019-05-23 04:00:00 11.5 6 Sudoeste 10 Sudoeste 0 929.6 -0.5 84
2019-05-23 03:00:00 12 6 Sudoeste 11 Sudoeste 0 929.9 -0.1 81
2019-05-23 02:00:00 12.6 10 Sudoeste 12 Oeste 0 930 0.6 80
2019-05-23 01:00:00 13.9 7 Oeste 14 Oeste 0 930.1 1.5 75
2019-05-23 00:00:00 15 10 Oeste 14 Oeste 0 930 1.6 70
2019-05-22 23:00:00 17.4 13 Oeste 22 Oeste 0 929.4 1.2 58
2019-05-22 22:00:00 20.2 8 Oeste 15 Sudoeste 0 928.6 0.5 42
2019-05-22 21:00:00 23.2 6 Noroeste 15 Oeste 0 928.4 0.1 33
2019-05-22 20:00:00 26.6 10 Oeste 20 Oeste 0 928.2 -0.3 26
2019-05-22 19:00:00 26.5 8 Noroeste 21 Oeste 0 928.1 -0.9 23
2019-05-22 18:00:00 27.8 15 Oeste 25 Oeste 0 928.3 -1.1 25
2019-05-22 17:00:00 27.3 7 Noroeste 24 Oeste 0 928.5 -1.1 24
2019-05-22 16:00:00 26.5 8 Noroeste 26 Oeste 0 929 -1 22
2019-05-22 15:00:00 25.1 6 Noroeste 17 Oeste 0 929.4 -0.7 25
2019-05-22 14:00:00 24.8 8 Sudoeste 14 Sur 0 929.6 -0.4 25
2019-05-22 13:00:00 23.1 5 Nordeste 12 Norte 0 930 0.2 30
2019-05-22 12:00:00 21.1 6 Nordeste 15 Este 0 930.1 0.8 38
2019-05-22 11:00:00 18.1 8 Este 14 Este 0 930 1 47
2019-05-22 10:00:00 15.2 8 Este 17 Este 0 929.8 1.1 58
2019-05-22 09:00:00 12.4 13 Este 19 Este 0 929.3 0.8 69
2019-05-22 08:00:00 9.2 12 Este 17 Este 0 929 0.4 77
2019-05-22 07:00:00 7.7 9 Este 13 Este 0 928.7 -0.1 75
2019-05-22 06:00:00 7.8 7 Nordeste 14 Nordeste 0 928.5 -0.5 79
2019-05-22 05:00:00 9.2 0 Calma 4 Oeste 0 928.6 0 77
2019-05-22 04:00:00 9.8 2 Sudoeste 4 Sudeste 0 928.8 0.3 72
2019-05-22 03:00:00 10.4 2 Sudoeste 17 Este 0 929 0.7 68
2019-05-22 02:00:00 11.2 5 Oeste 10 Oeste 0 928.6 0.6 65
2019-05-22 01:00:00 12.5 8 Sudoeste 15 Sudoeste 0 928.5 1 58
2019-05-22 00:00:00 14.4 8 Noroeste 14 Noroeste 0 928.3 1.2 49
2019-05-21 23:00:00 16.2 8 Noroeste 10 Noroeste 0 928 1.2 43
2019-05-21 22:00:00 17.8 6 Noroeste 9 Noroeste 0 927.5 0.8 39
2019-05-21 21:00:00 20.4 6 Noroeste 14 Noroeste 0 927.1 0.2 35
2019-05-21 20:00:00 24.1 10 Noroeste 18 Oeste 0 926.8 -0.2 26
2019-05-21 19:00:00 23.8 10 Noroeste 22 Nordeste 0 926.7 -0.4 25
2019-05-21 18:00:00 23.5 7 Norte 23 Noroeste 0 926.9 -0.5 27
2019-05-21 17:00:00 23.5 7 Norte 21 Noroeste 0 927 -0.4 25
2019-05-21 16:00:00 22.8 11 Norte 30 Nordeste 0 927.1 -0.5 30
2019-05-21 15:00:00 21.7 8 Norte 23 Este 0 927.4 -0.3 31
2019-05-21 14:00:00 20.6 6 Nordeste 23 Nordeste 0 927.4 -0.3 35
2019-05-21 13:00:00 19.3 10 Norte 18 Norte 0 927.6 -0.2 40
2019-05-21 12:00:00 17.6 5 Nordeste 14 Norte 0 927.7 0.4 45
2019-05-21 11:00:00 15.5 6 Norte 14 Nordeste 0 927.7 0.7 51
2019-05-21 10:00:00 12.7 8 Nordeste 13 Norte 0 927.8 1.2 65
2019-05-21 09:00:00 10.9 2 Norte 8 Sudeste 0 927.3 0.8 72
2019-05-21 08:00:00 5.8 2 Sur 4 Sur 0 927 0.5 87
2019-05-21 07:00:00 4.8 0 Calma 6 Sudoeste 0 926.6 0.3 86
2019-05-21 06:00:00 5.6 3 Noroeste 5 Noroeste 0 926.5 0.1 87
2019-05-21 05:00:00 6.1 4 Sudoeste 5 Oeste 0 926.5 0 83
2019-05-21 04:00:00 6.5 3 Sudoeste 8 Sudoeste 0 926.3 -0.3 80
2019-05-21 03:00:00 7.3 6 Sudoeste 12 Noroeste 0 926.4 0 77
2019-05-21 02:00:00 8.2 8 Noroeste 12 Noroeste 0 926.5 0.3 74
2019-05-21 01:00:00 8.8 8 Oeste 10 Oeste 0 926.6 1.1 69
2019-05-21 00:00:00 10.3 8 Noroeste 10 Noroeste 0 926.4 1.2 64